East Greenbush, New York
Current Conditions -  °F | °C
As of 4:51 AM on Saturday 20 Dec 2014 (Local Time) from KALB Reporting Station
Overcast Overcast  
Wind Chill: 17°   Ceiling: 2000
Heat Index: 25°   Visibility: 10mi
Dew Point: 16°   Wind: 7mph
Humidity: 69%   Direction: 30°NNE
Pressure: 30.26"   Gusts: NA
Location:  42.59°N, 73.7°W
Report Text: KALB 200951Z 03006KT 10SM OVC020 M04/M09 A3026 RMK AO2 SLP250 T10391089
Loading
Personal Weather Stations






























Interactive Weather Map New forecast layout! Learn more

10-Day Weather Forecast

Advertisements
Track Severe Weather on mobile